sensor_id;sensor_type;location;lat;lon;timestamp;pressure;altitude;pressure_sealevel;temperature;humidity
63405;BME280;49541;57.840;12.306;2022-11-20T00:04:31;100747.44;;;1.83;71.59
63405;BME280;49541;57.840;12.306;2022-11-20T00:09:31;100745.09;;;1.77;71.04
63405;BME280;49541;57.840;12.306;2022-11-20T00:14:32;100744.84;;;1.64;70.72
63405;BME280;49541;57.840;12.306;2022-11-20T00:19:32;100738.88;;;1.61;70.44
63405;BME280;49541;57.840;12.306;2022-11-20T00:24:32;100744.66;;;1.68;70.09
63405;BME280;49541;57.840;12.306;2022-11-20T00:29:32;100741.59;;;1.59;71.06
63405;BME280;49541;57.840;12.306;2022-11-20T00:34:33;100746.25;;;1.34;71.64
63405;BME280;49541;57.840;12.306;2022-11-20T00:39:33;100740.63;;;1.22;72.31
63405;BME280;49541;57.840;12.306;2022-11-20T00:44:33;100741.47;;;1.04;73.46
63405;BME280;49541;57.840;12.306;2022-11-20T00:49:33;100740.34;;;1.29;73.46
63405;BME280;49541;57.840;12.306;2022-11-20T00:54:33;100742.97;;;1.29;73.55
63405;BME280;49541;57.840;12.306;2022-11-20T00:59:34;100748.78;;;1.35;73.22
63405;BME280;49541;57.840;12.306;2022-11-20T01:04:34;100753.06;;;1.38;73.45
63405;BME280;49541;57.840;12.306;2022-11-20T01:09:34;100752.09;;;1.59;72.17
63405;BME280;49541;57.840;12.306;2022-11-20T01:14:34;100748.41;;;1.63;72.22
63405;BME280;49541;57.840;12.306;2022-11-20T01:19:34;100750.22;;;1.42;72.87
63405;BME280;49541;57.840;12.306;2022-11-20T01:24:35;100750.09;;;1.46;72.77
63405;BME280;49541;57.840;12.306;2022-11-20T01:29:35;100757.19;;;1.62;72.64
63405;BME280;49541;57.840;12.306;2022-11-20T01:34:35;100745.94;;;1.78;71.85
63405;BME280;49541;57.840;12.306;2022-11-20T01:39:35;100745.53;;;1.68;71.52
63405;BME280;49541;57.840;12.306;2022-11-20T01:49:42;100736.16;;;1.81;71.62
63405;BME280;49541;57.840;12.306;2022-11-20T01:54:49;100726.56;;;1.80;70.59
63405;BME280;49541;57.840;12.306;2022-11-20T01:59:54;100721.16;;;1.66;71.01
63405;BME280;49541;57.840;12.306;2022-11-20T02:04:56;100709.63;;;1.88;70.91
63405;BME280;49541;57.840;12.306;2022-11-20T02:10:00;100719.69;;;1.78;70.83
63405;BME280;49541;57.840;12.306;2022-11-20T02:15:01;100714.47;;;1.59;71.11
63405;BME280;49541;57.840;12.306;2022-11-20T02:20:01;100712.88;;;1.74;71.52
63405;BME280;49541;57.840;12.306;2022-11-20T02:25:02;100703.66;;;1.65;70.94
63405;BME280;49541;57.840;12.306;2022-11-20T02:30:04;100704.84;;;1.40;72.00
63405;BME280;49541;57.840;12.306;2022-11-20T02:35:50;100697.59;;;1.46;73.06
63405;BME280;49541;57.840;12.306;2022-11-20T02:40:25;100691.47;;;1.83;71.80
63405;BME280;49541;57.840;12.306;2022-11-20T02:45:26;100695.97;;;1.62;71.84
63405;BME280;49541;57.840;12.306;2022-11-20T02:50:26;100688.19;;;1.78;71.68
63405;BME280;49541;57.840;12.306;2022-11-20T02:55:26;100680.22;;;1.62;71.32
63405;BME280;49541;57.840;12.306;2022-11-20T03:00:26;100679.09;;;1.30;72.63
63405;BME280;49541;57.840;12.306;2022-11-20T03:05:27;100678.88;;;1.34;73.33
63405;BME280;49541;57.840;12.306;2022-11-20T03:10:27;100679.66;;;1.55;72.09
63405;BME280;49541;57.840;12.306;2022-11-20T03:15:27;100679.88;;;1.32;73.03
63405;BME280;49541;57.840;12.306;2022-11-20T03:20:27;100683.28;;;1.34;73.10
63405;BME280;49541;57.840;12.306;2022-11-20T03:25:27;100677.31;;;1.11;74.11
63405;BME280;49541;57.840;12.306;2022-11-20T03:30:28;100675.44;;;1.15;74.76
63405;BME280;49541;57.840;12.306;2022-11-20T03:35:28;100674.13;;;1.05;74.13
63405;BME280;49541;57.840;12.306;2022-11-20T03:40:28;100667.50;;;1.16;74.14
63405;BME280;49541;57.840;12.306;2022-11-20T03:45:28;100654.94;;;1.04;74.77
63405;BME280;49541;57.840;12.306;2022-11-20T03:50:28;100651.81;;;1.34;73.68
63405;BME280;49541;57.840;12.306;2022-11-20T03:55:29;100649.69;;;1.42;72.56
63405;BME280;49541;57.840;12.306;2022-11-20T04:00:29;100648.69;;;1.26;72.43
63405;BME280;49541;57.840;12.306;2022-11-20T04:05:29;100644.56;;;1.20;72.28
63405;BME280;49541;57.840;12.306;2022-11-20T04:10:29;100636.47;;;1.25;72.25
63405;BME280;49541;57.840;12.306;2022-11-20T04:15:29;100625.22;;;1.22;71.96
63405;BME280;49541;57.840;12.306;2022-11-20T04:20:30;100624.56;;;1.36;72.26
63405;BME280;49541;57.840;12.306;2022-11-20T04:25:30;100623.31;;;1.07;73.06
63405;BME280;49541;57.840;12.306;2022-11-20T04:30:30;100621.75;;;1.22;72.43
63405;BME280;49541;57.840;12.306;2022-11-20T04:35:33;100626.97;;;1.41;72.49
63405;BME280;49541;57.840;12.306;2022-11-20T04:40:33;100619.31;;;1.36;72.17
63405;BME280;49541;57.840;12.306;2022-11-20T04:45:33;100617.59;;;1.35;72.70
63405;BME280;49541;57.840;12.306;2022-11-20T04:50:39;100606.28;;;1.35;72.14
63405;BME280;49541;57.840;12.306;2022-11-20T04:55:39;100602.38;;;1.25;71.73
63405;BME280;49541;57.840;12.306;2022-11-20T05:00:40;100599.34;;;1.34;71.71
63405;BME280;49541;57.840;12.306;2022-11-20T05:05:40;100600.19;;;1.34;71.33
63405;BME280;49541;57.840;12.306;2022-11-20T05:10:40;100595.34;;;1.08;72.75
63405;BME280;49541;57.840;12.306;2022-11-20T05:15:40;100592.94;;;1.20;71.36
63405;BME280;49541;57.840;12.306;2022-11-20T05:20:40;100586.47;;;0.91;72.42
63405;BME280;49541;57.840;12.306;2022-11-20T05:25:41;100580.78;;;1.00;71.92
63405;BME280;49541;57.840;12.306;2022-11-20T05:30:41;100575.25;;;1.26;71.97
63405;BME280;49541;57.840;12.306;2022-11-20T05:35:42;100571.41;;;1.14;72.23
63405;BME280;49541;57.840;12.306;2022-11-20T05:40:42;100563.63;;;1.12;71.59
63405;BME280;49541;57.840;12.306;2022-11-20T05:45:42;100559.69;;;1.04;72.34
63405;BME280;49541;57.840;12.306;2022-11-20T05:50:42;100559.97;;;0.97;72.65
63405;BME280;49541;57.840;12.306;2022-11-20T05:55:42;100560.72;;;1.18;71.88
63405;BME280;49541;57.840;12.306;2022-11-20T06:00:43;100547.13;;;1.47;72.09
63405;BME280;49541;57.840;12.306;2022-11-20T06:05:43;100552.28;;;1.66;71.75
63405;BME280;49541;57.840;12.306;2022-11-20T06:10:43;100545.91;;;1.17;71.79
63405;BME280;49541;57.840;12.306;2022-11-20T06:15:50;100539.53;;;1.23;72.69
63405;BME280;49541;57.840;12.306;2022-11-20T06:20:58;100536.63;;;1.10;73.17
63405;BME280;49541;57.840;12.306;2022-11-20T06:26:05;100539.59;;;1.21;72.77
63405;BME280;49541;57.840;12.306;2022-11-20T06:31:06;100524.72;;;1.39;72.58
63405;BME280;49541;57.840;12.306;2022-11-20T06:36:07;100527.56;;;1.35;72.83
63405;BME280;49541;57.840;12.306;2022-11-20T06:41:10;100520.34;;;1.57;71.63
63405;BME280;49541;57.840;12.306;2022-11-20T06:46:11;100516.28;;;1.33;71.30
63405;BME280;49541;57.840;12.306;2022-11-20T06:51:12;100515.97;;;1.21;72.25
63405;BME280;49541;57.840;12.306;2022-11-20T06:56:12;100521.28;;;1.20;72.78
63405;BME280;49541;57.840;12.306;2022-11-20T07:01:13;100508.00;;;1.42;71.47
63405;BME280;49541;57.840;12.306;2022-11-20T07:06:14;100503.28;;;1.49;71.05
63405;BME280;49541;57.840;12.306;2022-11-20T07:11:14;100509.06;;;1.38;70.86
63405;BME280;49541;57.840;12.306;2022-11-20T07:16:14;100498.88;;;1.32;71.44
63405;BME280;49541;57.840;12.306;2022-11-20T07:21:14;100508.66;;;1.46;71.63
63405;BME280;49541;57.840;12.306;2022-11-20T07:26:15;100503.34;;;1.64;71.17
63405;BME280;49541;57.840;12.306;2022-11-20T07:31:15;100509.44;;;1.30;72.05
63405;BME280;49541;57.840;12.306;2022-11-20T07:36:15;100501.81;;;1.43;72.27
63405;BME280;49541;57.840;12.306;2022-11-20T07:41:16;100493.63;;;1.49;72.09
63405;BME280;49541;57.840;12.306;2022-11-20T07:46:16;100495.16;;;1.36;72.21
63405;BME280;49541;57.840;12.306;2022-11-20T07:51:16;100485.34;;;1.39;72.72
63405;BME280;49541;57.840;12.306;2022-11-20T07:56:16;100489.13;;;1.69;71.71
63405;BME280;49541;57.840;12.306;2022-11-20T08:01:16;100478.34;;;1.40;72.74
63405;BME280;49541;57.840;12.306;2022-11-20T08:06:17;100482.59;;;1.42;73.23
63405;BME280;49541;57.840;12.306;2022-11-20T08:11:18;100478.31;;;1.75;72.30
63405;BME280;49541;57.840;12.306;2022-11-20T08:16:38;100465.03;;;1.78;72.65
63405;BME280;49541;57.840;12.306;2022-11-20T08:21:38;100471.75;;;1.83;71.74
63405;BME280;49541;57.840;12.306;2022-11-20T08:26:39;100448.00;;;2.02;70.08
63405;BME280;49541;57.840;12.306;2022-11-20T08:31:39;100447.66;;;1.75;71.32
63405;BME280;49541;57.840;12.306;2022-11-20T08:36:40;100437.47;;;1.69;71.23
63405;BME280;49541;57.840;12.306;2022-11-20T08:41:40;100443.38;;;1.90;71.17
63405;BME280;49541;57.840;12.306;2022-11-20T08:46:41;100439.94;;;2.05;70.15
63405;BME280;49541;57.840;12.306;2022-11-20T08:51:41;100433.94;;;2.19;70.00
63405;BME280;49541;57.840;12.306;2022-11-20T08:56:42;100423.09;;;2.10;69.61
63405;BME280;49541;57.840;12.306;2022-11-20T09:01:42;100428.09;;;2.14;70.17
63405;BME280;49541;57.840;12.306;2022-11-20T09:06:42;100426.56;;;2.10;69.91
63405;BME280;49541;57.840;12.306;2022-11-20T09:11:42;100412.66;;;2.08;70.11
63405;BME280;49541;57.840;12.306;2022-11-20T09:16:44;100415.53;;;2.19;70.14
63405;BME280;49541;57.840;12.306;2022-11-20T09:21:44;100406.91;;;2.33;69.85
63405;BME280;49541;57.840;12.306;2022-11-20T09:26:44;100409.09;;;2.57;69.59
63405;BME280;49541;57.840;12.306;2022-11-20T09:31:45;100415.91;;;2.61;69.53
63405;BME280;49541;57.840;12.306;2022-11-20T09:36:45;100409.78;;;2.60;69.67
63405;BME280;49541;57.840;12.306;2022-11-20T09:47:01;100399.44;;;2.73;68.87
63405;BME280;49541;57.840;12.306;2022-11-20T09:52:21;100393.56;;;2.68;69.20
63405;BME280;49541;57.840;12.306;2022-11-20T09:57:24;100382.41;;;2.49;70.02
63405;BME280;49541;57.840;12.306;2022-11-20T10:02:29;100363.81;;;2.52;70.18
63405;BME280;49541;57.840;12.306;2022-11-20T10:17:34;100366.44;;;2.98;68.03
63405;BME280;49541;57.840;12.306;2022-11-20T10:27:56;100361.13;;;3.14;68.17
63405;BME280;49541;57.840;12.306;2022-11-20T10:33:13;100353.94;;;3.32;67.02
63405;BME280;49541;57.840;12.306;2022-11-20T10:38:18;100349.38;;;3.19;67.25
63405;BME280;49541;57.840;12.306;2022-11-20T10:43:27;100332.97;;;3.73;65.30
63405;BME280;49541;57.840;12.306;2022-11-20T10:48:30;100319.56;;;3.90;64.56
63405;BME280;49541;57.840;12.306;2022-11-20T11:04:01;100311.81;;;3.75;64.89
63405;BME280;49541;57.840;12.306;2022-11-20T11:09:08;100296.38;;;3.40;65.43
63405;BME280;49541;57.840;12.306;2022-11-20T11:14:12;100297.53;;;3.36;66.04
63405;BME280;49541;57.840;12.306;2022-11-20T11:19:13;100291.69;;;3.59;65.36
63405;BME280;49541;57.840;12.306;2022-11-20T11:29:20;100278.66;;;3.85;63.00
63405;BME280;49541;57.840;12.306;2022-11-20T11:34:20;100269.97;;;3.41;64.89
63405;BME280;49541;57.840;12.306;2022-11-20T11:39:20;100255.41;;;3.07;66.24
63405;BME280;49541;57.840;12.306;2022-11-20T11:44:22;100254.47;;;3.22;66.66
63405;BME280;49541;57.840;12.306;2022-11-20T11:49:43;100252.03;;;3.34;66.08
63405;BME280;49541;57.840;12.306;2022-11-20T11:54:57;100252.91;;;3.05;66.86
63405;BME280;49541;57.840;12.306;2022-11-20T12:05:05;100239.13;;;2.86;69.18
63405;BME280;49541;57.840;12.306;2022-11-20T12:10:19;100231.47;;;2.97;68.13
63405;BME280;49541;57.840;12.306;2022-11-20T12:15:23;100219.41;;;3.07;68.06
63405;BME280;49541;57.840;12.306;2022-11-20T12:20:29;100220.34;;;2.63;69.49
63405;BME280;49541;57.840;12.306;2022-11-20T12:25:33;100212.00;;;3.28;67.19
63405;BME280;49541;57.840;12.306;2022-11-20T12:30:38;100210.69;;;3.07;67.57
63405;BME280;49541;57.840;12.306;2022-11-20T13:07:08;100168.22;;;2.41;69.78
63405;BME280;49541;57.840;12.306;2022-11-20T13:12:18;100155.75;;;2.59;69.88
63405;BME280;49541;57.840;12.306;2022-11-20T13:17:22;100153.84;;;2.90;69.72
63405;BME280;49541;57.840;12.306;2022-11-20T13:22:43;100151.59;;;2.98;67.94
63405;BME280;49541;57.840;12.306;2022-11-20T13:27:47;100143.47;;;2.89;68.13
63405;BME280;49541;57.840;12.306;2022-11-20T13:32:49;100142.13;;;3.10;67.56
63405;BME280;49541;57.840;12.306;2022-11-20T13:37:59;100133.03;;;2.87;68.25
63405;BME280;49541;57.840;12.306;2022-11-20T13:48:22;100128.53;;;2.60;70.10
63405;BME280;49541;57.840;12.306;2022-11-20T13:53:29;100109.47;;;2.57;70.65
63405;BME280;49541;57.840;12.306;2022-11-20T13:58:44;100108.63;;;2.56;70.90
63405;BME280;49541;57.840;12.306;2022-11-20T14:03:50;100105.06;;;2.13;72.69
63405;BME280;49541;57.840;12.306;2022-11-20T14:08:51;100096.13;;;2.31;72.91
63405;BME280;49541;57.840;12.306;2022-11-20T14:19:16;100086.06;;;2.09;73.29
63405;BME280;49541;57.840;12.306;2022-11-20T14:24:19;100079.84;;;2.10;73.78
63405;BME280;49541;57.840;12.306;2022-11-20T14:29:27;100067.19;;;2.02;74.18
63405;BME280;49541;57.840;12.306;2022-11-20T14:34:28;100051.16;;;2.50;72.36
63405;BME280;49541;57.840;12.306;2022-11-20T14:39:34;100049.00;;;2.57;72.40
63405;BME280;49541;57.840;12.306;2022-11-20T14:44:34;100037.94;;;2.23;73.78
63405;BME280;49541;57.840;12.306;2022-11-20T14:49:35;100028.94;;;2.27;73.65
63405;BME280;49541;57.840;12.306;2022-11-20T14:54:42;100040.72;;;2.05;74.21
63405;BME280;49541;57.840;12.306;2022-11-20T14:59:43;100032.28;;;2.15;74.29
63405;BME280;49541;57.840;12.306;2022-11-20T15:04:46;100029.56;;;2.45;73.38
63405;BME280;49541;57.840;12.306;2022-11-20T15:09:47;100021.44;;;2.07;74.41
63405;BME280;49541;57.840;12.306;2022-11-20T15:14:47;100010.91;;;2.07;75.29
63405;BME280;49541;57.840;12.306;2022-11-20T15:19:48;100003.75;;;2.09;74.33
63405;BME280;49541;57.840;12.306;2022-11-20T15:24:48;100013.25;;;2.11;74.87
63405;BME280;49541;57.840;12.306;2022-11-20T15:29:48;100001.88;;;2.54;73.74
63405;BME280;49541;57.840;12.306;2022-11-20T15:34:48;99989.50;;;2.13;74.64
63405;BME280;49541;57.840;12.306;2022-11-20T15:39:48;99988.97;;;2.08;75.01
63405;BME280;49541;57.840;12.306;2022-11-20T15:44:48;99986.13;;;2.39;74.35
63405;BME280;49541;57.840;12.306;2022-11-20T15:49:49;99983.63;;;2.79;73.42
63405;BME280;49541;57.840;12.306;2022-11-20T15:54:49;99977.13;;;2.43;73.47
63405;BME280;49541;57.840;12.306;2022-11-20T15:59:49;99969.72;;;2.36;74.85
63405;BME280;49541;57.840;12.306;2022-11-20T16:04:49;99966.31;;;2.62;74.27
63405;BME280;49541;57.840;12.306;2022-11-20T16:09:49;99957.63;;;2.33;74.53
63405;BME280;49541;57.840;12.306;2022-11-20T16:14:50;99940.56;;;2.26;74.67
63405;BME280;49541;57.840;12.306;2022-11-20T16:20:10;99946.34;;;2.31;74.70
63405;BME280;49541;57.840;12.306;2022-11-20T16:25:11;99942.78;;;2.32;74.57
63405;BME280;49541;57.840;12.306;2022-11-20T16:30:11;99925.66;;;2.54;74.11
63405;BME280;49541;57.840;12.306;2022-11-20T16:35:11;99920.91;;;2.46;73.94
63405;BME280;49541;57.840;12.306;2022-11-20T16:40:11;99925.94;;;2.49;74.01
63405;BME280;49541;57.840;12.306;2022-11-20T16:45:11;99915.56;;;2.48;74.47
63405;BME280;49541;57.840;12.306;2022-11-20T16:50:12;99905.63;;;2.38;74.38
63405;BME280;49541;57.840;12.306;2022-11-20T16:55:12;99899.78;;;2.48;74.40
63405;BME280;49541;57.840;12.306;2022-11-20T17:00:13;99900.28;;;2.25;75.10
63405;BME280;49541;57.840;12.306;2022-11-20T17:05:13;99893.81;;;2.31;75.28
63405;BME280;49541;57.840;12.306;2022-11-20T17:10:13;99882.47;;;2.31;74.68
63405;BME280;49541;57.840;12.306;2022-11-20T17:15:14;99869.50;;;2.28;74.78
63405;BME280;49541;57.840;12.306;2022-11-20T17:20:14;99882.84;;;2.24;75.36
63405;BME280;49541;57.840;12.306;2022-11-20T17:25:14;99873.19;;;2.25;75.50
63405;BME280;49541;57.840;12.306;2022-11-20T17:30:14;99871.44;;;2.11;75.74
63405;BME280;49541;57.840;12.306;2022-11-20T17:35:14;99859.31;;;2.23;75.11
63405;BME280;49541;57.840;12.306;2022-11-20T17:40:15;99845.06;;;2.13;75.77
63405;BME280;49541;57.840;12.306;2022-11-20T17:45:15;99842.06;;;2.73;73.71
63405;BME280;49541;57.840;12.306;2022-11-20T17:50:15;99833.66;;;1.99;74.86
63405;BME280;49541;57.840;12.306;2022-11-20T17:55:15;99835.22;;;2.02;76.78
63405;BME280;49541;57.840;12.306;2022-11-20T18:00:15;99825.97;;;1.96;75.63
63405;BME280;49541;57.840;12.306;2022-11-20T18:05:16;99818.47;;;2.04;76.08
63405;BME280;49541;57.840;12.306;2022-11-20T18:10:17;99813.78;;;1.95;75.64
63405;BME280;49541;57.840;12.306;2022-11-20T18:15:17;99800.28;;;1.87;76.10
63405;BME280;49541;57.840;12.306;2022-11-20T18:20:17;99796.38;;;1.66;77.12
63405;BME280;49541;57.840;12.306;2022-11-20T18:25:17;99805.38;;;1.76;77.19
63405;BME280;49541;57.840;12.306;2022-11-20T18:30:18;99797.03;;;1.83;76.62
63405;BME280;49541;57.840;12.306;2022-11-20T18:35:18;99788.31;;;1.83;76.88
63405;BME280;49541;57.840;12.306;2022-11-20T18:40:18;99781.88;;;1.60;78.54
63405;BME280;49541;57.840;12.306;2022-11-20T18:45:18;99778.19;;;1.77;78.31
63405;BME280;49541;57.840;12.306;2022-11-20T18:50:19;99761.47;;;1.92;77.51
63405;BME280;49541;57.840;12.306;2022-11-20T18:55:19;99761.56;;;1.91;76.83
63405;BME280;49541;57.840;12.306;2022-11-20T19:00:19;99758.47;;;2.38;75.54
63405;BME280;49541;57.840;12.306;2022-11-20T19:05:20;99749.63;;;1.99;75.79
63405;BME280;49541;57.840;12.306;2022-11-20T19:10:20;99747.25;;;1.68;76.91
63405;BME280;49541;57.840;12.306;2022-11-20T19:15:23;99742.44;;;1.47;77.15
63405;BME280;49541;57.840;12.306;2022-11-20T19:20:23;99736.44;;;1.45;77.87
63405;BME280;49541;57.840;12.306;2022-11-20T19:25:23;99734.19;;;1.25;78.15
63405;BME280;49541;57.840;12.306;2022-11-20T19:30:24;99723.78;;;1.52;77.86
63405;BME280;49541;57.840;12.306;2022-11-20T19:35:24;99710.44;;;1.55;77.96
63405;BME280;49541;57.840;12.306;2022-11-20T19:40:24;99704.38;;;1.54;77.76
63405;BME280;49541;57.840;12.306;2022-11-20T19:45:24;99696.03;;;1.62;77.79
63405;BME280;49541;57.840;12.306;2022-11-20T19:50:24;99689.13;;;1.47;77.85
63405;BME280;49541;57.840;12.306;2022-11-20T19:55:25;99683.44;;;1.67;77.20
63405;BME280;49541;57.840;12.306;2022-11-20T20:00:25;99682.22;;;1.73;76.89
63405;BME280;49541;57.840;12.306;2022-11-20T20:05:25;99676.84;;;2.01;75.33
63405;BME280;49541;57.840;12.306;2022-11-20T20:10:26;99671.47;;;1.90;74.63
63405;BME280;49541;57.840;12.306;2022-11-20T20:15:26;99670.25;;;1.27;76.53
63405;BME280;49541;57.840;12.306;2022-11-20T20:20:26;99660.13;;;1.21;77.47
63405;BME280;49541;57.840;12.306;2022-11-20T20:25:27;99649.97;;;1.43;77.22
63405;BME280;49541;57.840;12.306;2022-11-20T20:30:28;99657.53;;;1.48;76.97
63405;BME280;49541;57.840;12.306;2022-11-20T20:35:28;99645.75;;;1.41;77.41
63405;BME280;49541;57.840;12.306;2022-11-20T20:40:28;99638.34;;;1.33;77.20
63405;BME280;49541;57.840;12.306;2022-11-20T20:45:28;99631.97;;;1.37;77.24
63405;BME280;49541;57.840;12.306;2022-11-20T20:50:28;99620.31;;;1.56;76.63
63405;BME280;49541;57.840;12.306;2022-11-20T20:55:29;99620.50;;;1.26;77.22
63405;BME280;49541;57.840;12.306;2022-11-20T21:00:29;99615.84;;;1.43;77.37
63405;BME280;49541;57.840;12.306;2022-11-20T21:05:29;99611.50;;;1.30;76.90
63405;BME280;49541;57.840;12.306;2022-11-20T21:10:29;99610.75;;;1.28;77.76
63405;BME280;49541;57.840;12.306;2022-11-20T21:15:30;99595.19;;;1.25;77.34
63405;BME280;49541;57.840;12.306;2022-11-20T21:20:30;99582.88;;;1.12;77.55
63405;BME280;49541;57.840;12.306;2022-11-20T21:25:49;99585.50;;;1.12;77.69
63405;BME280;49541;57.840;12.306;2022-11-20T21:30:49;99572.84;;;1.19;77.63
63405;BME280;49541;57.840;12.306;2022-11-20T21:35:49;99572.56;;;1.23;77.73
63405;BME280;49541;57.840;12.306;2022-11-20T21:40:50;99564.03;;;1.20;77.58
63405;BME280;49541;57.840;12.306;2022-11-20T21:45:50;99554.63;;;1.03;77.70
63405;BME280;49541;57.840;12.306;2022-11-20T21:50:55;99553.16;;;1.26;77.53
63405;BME280;49541;57.840;12.306;2022-11-20T21:55:56;99534.09;;;1.10;77.66
63405;BME280;49541;57.840;12.306;2022-11-20T22:00:57;99531.28;;;1.13;76.93
63405;BME280;49541;57.840;12.306;2022-11-20T22:05:57;99521.78;;;0.97;77.64
63405;BME280;49541;57.840;12.306;2022-11-20T22:11:01;99512.72;;;0.89;77.12
63405;BME280;49541;57.840;12.306;2022-11-20T22:16:02;99510.19;;;0.87;77.54
63405;BME280;49541;57.840;12.306;2022-11-20T22:21:03;99500.66;;;1.13;76.88
63405;BME280;49541;57.840;12.306;2022-11-20T22:26:05;99495.47;;;1.26;75.70
63405;BME280;49541;57.840;12.306;2022-11-20T22:31:06;99486.72;;;1.13;77.00
63405;BME280;49541;57.840;12.306;2022-11-20T22:36:08;99473.78;;;1.10;76.75
63405;BME280;49541;57.840;12.306;2022-11-20T22:41:12;99466.72;;;1.37;76.30
63405;BME280;49541;57.840;12.306;2022-11-20T22:51:13;99463.03;;;1.14;76.05
63405;BME280;49541;57.840;12.306;2022-11-20T22:56:14;99461.22;;;1.42;75.80
63405;BME280;49541;57.840;12.306;2022-11-20T23:01:16;99455.63;;;1.34;75.37
63405;BME280;49541;57.840;12.306;2022-11-20T23:06:17;99452.69;;;1.38;75.80
63405;BME280;49541;57.840;12.306;2022-11-20T23:11:21;99450.41;;;1.59;75.24
63405;BME280;49541;57.840;12.306;2022-11-20T23:16:22;99440.28;;;1.28;75.45
63405;BME280;49541;57.840;12.306;2022-11-20T23:21:23;99435.88;;;1.28;76.30
63405;BME280;49541;57.840;12.306;2022-11-20T23:26:25;99419.13;;;0.91;77.55
63405;BME280;49541;57.840;12.306;2022-11-20T23:31:26;99420.66;;;0.80;78.40
63405;BME280;49541;57.840;12.306;2022-11-20T23:36:26;99424.19;;;0.79;78.77
63405;BME280;49541;57.840;12.306;2022-11-20T23:41:27;99414.81;;;0.90;78.36
63405;BME280;49541;57.840;12.306;2022-11-20T23:46:27;99405.38;;;0.87;77.94
63405;BME280;49541;57.840;12.306;2022-11-20T23:51:27;99400.06;;;1.01;78.00
63405;BME280;49541;57.840;12.306;2022-11-20T23:56:28;99398.06;;;1.05;77.70
